sensor_id;sensor_type;location;lat;lon;timestamp;P1;durP1;ratioP1;P2;durP2;ratioP2
64353;SDS011;50681;53.334;-6.536;2023-05-10T00:00:38;10.10;;;2.58;;
64353;SDS011;50681;53.334;-6.536;2023-05-10T00:03:04;13.85;;;3.20;;
64353;SDS011;50681;53.334;-6.536;2023-05-10T00:05:30;18.58;;;3.35;;
64353;SDS011;50681;53.334;-6.536;2023-05-10T00:07:56;15.38;;;2.83;;
64353;SDS011;50681;53.334;-6.536;2023-05-10T00:10:21;14.50;;;2.73;;
64353;SDS011;50681;53.334;-6.536;2023-05-10T00:12:47;15.83;;;3.30;;
64353;SDS011;50681;53.334;-6.536;2023-05-10T00:15:12;19.27;;;3.57;;
64353;SDS011;50681;53.334;-6.536;2023-05-10T00:17:37;12.30;;;2.50;;
64353;SDS011;50681;53.334;-6.536;2023-05-10T00:20:03;13.57;;;2.47;;
64353;SDS011;50681;53.334;-6.536;2023-05-10T00:22:30;13.15;;;2.70;;
64353;SDS011;50681;53.334;-6.536;2023-05-10T00:24:55;13.02;;;2.50;;
64353;SDS011;50681;53.334;-6.536;2023-05-10T00:27:21;12.17;;;2.87;;
64353;SDS011;50681;53.334;-6.536;2023-05-10T00:29:46;15.67;;;2.47;;
64353;SDS011;50681;53.334;-6.536;2023-05-10T00:32:12;15.87;;;2.63;;
64353;SDS011;50681;53.334;-6.536;2023-05-10T00:34:39;16.48;;;3.00;;
64353;SDS011;50681;53.334;-6.536;2023-05-10T00:37:04;13.50;;;2.35;;
64353;SDS011;50681;53.334;-6.536;2023-05-10T00:39:30;12.13;;;2.17;;
64353;SDS011;50681;53.334;-6.536;2023-05-10T00:41:57;11.57;;;2.45;;
64353;SDS011;50681;53.334;-6.536;2023-05-10T00:44:22;12.40;;;2.50;;
64353;SDS011;50681;53.334;-6.536;2023-05-10T00:46:48;12.37;;;2.90;;
64353;SDS011;50681;53.334;-6.536;2023-05-10T00:49:14;15.88;;;2.80;;
64353;SDS011;50681;53.334;-6.536;2023-05-10T00:51:41;16.70;;;2.67;;
64353;SDS011;50681;53.334;-6.536;2023-05-10T00:54:08;13.70;;;2.95;;
64353;SDS011;50681;53.334;-6.536;2023-05-10T00:56:36;17.25;;;2.42;;
64353;SDS011;50681;53.334;-6.536;2023-05-10T00:59:01;12.93;;;2.80;;
64353;SDS011;50681;53.334;-6.536;2023-05-10T01:01:27;20.42;;;2.90;;
64353;SDS011;50681;53.334;-6.536;2023-05-10T01:03:54;17.52;;;2.70;;
64353;SDS011;50681;53.334;-6.536;2023-05-10T01:06:20;9.43;;;1.95;;
64353;SDS011;50681;53.334;-6.536;2023-05-10T01:08:46;13.40;;;2.37;;
64353;SDS011;50681;53.334;-6.536;2023-05-10T01:11:12;10.30;;;2.50;;
64353;SDS011;50681;53.334;-6.536;2023-05-10T01:13:38;7.35;;;2.25;;
64353;SDS011;50681;53.334;-6.536;2023-05-10T01:16:07;15.02;;;2.88;;
64353;SDS011;50681;53.334;-6.536;2023-05-10T01:18:34;8.98;;;2.58;;
64353;SDS011;50681;53.334;-6.536;2023-05-10T01:37:52;6.97;;;1.67;;
64353;SDS011;50681;53.334;-6.536;2023-05-10T01:40:32;9.32;;;2.22;;
64353;SDS011;50681;53.334;-6.536;2023-05-10T01:43:02;9.98;;;2.25;;
64353;SDS011;50681;53.334;-6.536;2023-05-10T01:45:41;7.05;;;2.00;;
64353;SDS011;50681;53.334;-6.536;2023-05-10T01:48:15;12.27;;;2.53;;
64353;SDS011;50681;53.334;-6.536;2023-05-10T01:50:43;11.82;;;2.20;;
64353;SDS011;50681;53.334;-6.536;2023-05-10T01:53:11;8.65;;;2.28;;
64353;SDS011;50681;53.334;-6.536;2023-05-10T01:58:25;8.77;;;1.95;;
64353;SDS011;50681;53.334;-6.536;2023-05-10T02:00:55;13.30;;;2.22;;
64353;SDS011;50681;53.334;-6.536;2023-05-10T02:03:23;12.68;;;2.22;;
64353;SDS011;50681;53.334;-6.536;2023-05-10T02:05:52;8.95;;;1.90;;
64353;SDS011;50681;53.334;-6.536;2023-05-10T02:08:19;12.15;;;2.38;;
64353;SDS011;50681;53.334;-6.536;2023-05-10T02:10:46;11.90;;;2.40;;
64353;SDS011;50681;53.334;-6.536;2023-05-10T02:13:17;11.13;;;2.03;;
64353;SDS011;50681;53.334;-6.536;2023-05-10T02:15:43;11.52;;;2.53;;
64353;SDS011;50681;53.334;-6.536;2023-05-10T02:18:13;14.15;;;2.30;;
64353;SDS011;50681;53.334;-6.536;2023-05-10T02:20:40;9.13;;;2.08;;
64353;SDS011;50681;53.334;-6.536;2023-05-10T02:25:33;12.95;;;2.17;;
64353;SDS011;50681;53.334;-6.536;2023-05-10T02:30:26;9.20;;;2.20;;
64353;SDS011;50681;53.334;-6.536;2023-05-10T02:32:54;14.23;;;2.30;;
64353;SDS011;50681;53.334;-6.536;2023-05-10T02:35:20;11.63;;;2.33;;
64353;SDS011;50681;53.334;-6.536;2023-05-10T02:37:48;13.05;;;2.53;;
64353;SDS011;50681;53.334;-6.536;2023-05-10T02:40:14;8.50;;;2.17;;
64353;SDS011;50681;53.334;-6.536;2023-05-10T02:42:42;16.40;;;2.60;;
64353;SDS011;50681;53.334;-6.536;2023-05-10T02:45:11;10.98;;;2.50;;
64353;SDS011;50681;53.334;-6.536;2023-05-10T02:47:38;13.43;;;2.50;;
64353;SDS011;50681;53.334;-6.536;2023-05-10T02:50:04;11.82;;;2.00;;
64353;SDS011;50681;53.334;-6.536;2023-05-10T02:52:44;20.13;;;3.58;;
64353;SDS011;50681;53.334;-6.536;2023-05-10T02:55:14;20.67;;;2.80;;
64353;SDS011;50681;53.334;-6.536;2023-05-10T02:57:43;13.52;;;2.80;;
64353;SDS011;50681;53.334;-6.536;2023-05-10T03:00:13;17.10;;;2.70;;
64353;SDS011;50681;53.334;-6.536;2023-05-10T03:02:39;16.75;;;2.47;;
64353;SDS011;50681;53.334;-6.536;2023-05-10T03:05:05;9.85;;;2.47;;
64353;SDS011;50681;53.334;-6.536;2023-05-10T03:07:33;8.48;;;2.15;;
64353;SDS011;50681;53.334;-6.536;2023-05-10T03:09:59;17.70;;;2.50;;
64353;SDS011;50681;53.334;-6.536;2023-05-10T03:15:29;14.25;;;2.45;;
64353;SDS011;50681;53.334;-6.536;2023-05-10T03:18:12;18.45;;;2.67;;
64353;SDS011;50681;53.334;-6.536;2023-05-10T03:20:42;14.45;;;2.42;;
64353;SDS011;50681;53.334;-6.536;2023-05-10T03:23:12;12.93;;;2.42;;
64353;SDS011;50681;53.334;-6.536;2023-05-10T03:25:46;13.23;;;2.25;;
64353;SDS011;50681;53.334;-6.536;2023-05-10T03:28:14;15.98;;;2.88;;
64353;SDS011;50681;53.334;-6.536;2023-05-10T03:30:43;8.55;;;2.10;;
64353;SDS011;50681;53.334;-6.536;2023-05-10T03:33:10;11.55;;;2.45;;
64353;SDS011;50681;53.334;-6.536;2023-05-10T03:35:35;14.73;;;2.35;;
64353;SDS011;50681;53.334;-6.536;2023-05-10T03:38:01;16.40;;;2.50;;
64353;SDS011;50681;53.334;-6.536;2023-05-10T03:40:27;19.10;;;2.63;;
64353;SDS011;50681;53.334;-6.536;2023-05-10T03:42:59;12.82;;;2.05;;
64353;SDS011;50681;53.334;-6.536;2023-05-10T03:45:25;14.02;;;2.67;;
64353;SDS011;50681;53.334;-6.536;2023-05-10T03:47:51;16.42;;;2.35;;
64353;SDS011;50681;53.334;-6.536;2023-05-10T03:50:16;16.13;;;2.90;;
64353;SDS011;50681;53.334;-6.536;2023-05-10T03:52:43;15.52;;;2.90;;
64353;SDS011;50681;53.334;-6.536;2023-05-10T03:55:09;20.55;;;2.33;;
64353;SDS011;50681;53.334;-6.536;2023-05-10T03:57:34;21.17;;;3.20;;
64353;SDS011;50681;53.334;-6.536;2023-05-10T04:00:00;14.17;;;2.53;;
64353;SDS011;50681;53.334;-6.536;2023-05-10T04:02:26;19.88;;;2.78;;
64353;SDS011;50681;53.334;-6.536;2023-05-10T04:04:51;28.77;;;2.70;;
64353;SDS011;50681;53.334;-6.536;2023-05-10T04:07:16;13.67;;;2.87;;
64353;SDS011;50681;53.334;-6.536;2023-05-10T04:09:43;11.30;;;2.40;;
64353;SDS011;50681;53.334;-6.536;2023-05-10T04:12:08;11.63;;;2.35;;
64353;SDS011;50681;53.334;-6.536;2023-05-10T04:14:34;13.60;;;2.23;;
64353;SDS011;50681;53.334;-6.536;2023-05-10T04:16:59;20.33;;;3.20;;
64353;SDS011;50681;53.334;-6.536;2023-05-10T04:19:28;20.60;;;2.30;;
64353;SDS011;50681;53.334;-6.536;2023-05-10T04:21:55;16.30;;;3.08;;
64353;SDS011;50681;53.334;-6.536;2023-05-10T04:24:20;21.70;;;2.90;;
64353;SDS011;50681;53.334;-6.536;2023-05-10T04:26:45;18.60;;;3.27;;
64353;SDS011;50681;53.334;-6.536;2023-05-10T04:29:11;14.40;;;2.57;;
64353;SDS011;50681;53.334;-6.536;2023-05-10T04:31:36;18.20;;;2.20;;
64353;SDS011;50681;53.334;-6.536;2023-05-10T04:34:02;12.60;;;2.53;;
64353;SDS011;50681;53.334;-6.536;2023-05-10T04:36:27;14.97;;;2.90;;
64353;SDS011;50681;53.334;-6.536;2023-05-10T04:38:52;8.93;;;2.33;;
64353;SDS011;50681;53.334;-6.536;2023-05-10T04:41:18;9.23;;;2.03;;
64353;SDS011;50681;53.334;-6.536;2023-05-10T04:43:43;7.73;;;2.13;;
64353;SDS011;50681;53.334;-6.536;2023-05-10T04:46:09;14.23;;;2.90;;
64353;SDS011;50681;53.334;-6.536;2023-05-10T04:48:34;17.67;;;2.33;;
64353;SDS011;50681;53.334;-6.536;2023-05-10T04:51:00;12.47;;;2.43;;
64353;SDS011;50681;53.334;-6.536;2023-05-10T04:53:25;11.07;;;2.10;;
64353;SDS011;50681;53.334;-6.536;2023-05-10T04:55:51;16.05;;;2.35;;
64353;SDS011;50681;53.334;-6.536;2023-05-10T04:58:16;13.83;;;2.07;;
64353;SDS011;50681;53.334;-6.536;2023-05-10T05:00:41;9.97;;;2.20;;
64353;SDS011;50681;53.334;-6.536;2023-05-10T05:03:07;24.10;;;2.70;;
64353;SDS011;50681;53.334;-6.536;2023-05-10T05:05:33;12.17;;;2.30;;
64353;SDS011;50681;53.334;-6.536;2023-05-10T05:07:58;20.10;;;3.23;;
64353;SDS011;50681;53.334;-6.536;2023-05-10T05:10:24;16.77;;;2.57;;
64353;SDS011;50681;53.334;-6.536;2023-05-10T05:12:49;14.77;;;2.83;;
64353;SDS011;50681;53.334;-6.536;2023-05-10T05:15:14;11.37;;;2.37;;
64353;SDS011;50681;53.334;-6.536;2023-05-10T05:17:41;10.38;;;2.10;;
64353;SDS011;50681;53.334;-6.536;2023-05-10T05:20:07;14.88;;;2.50;;
64353;SDS011;50681;53.334;-6.536;2023-05-10T05:22:33;11.25;;;2.22;;
64353;SDS011;50681;53.334;-6.536;2023-05-10T05:24:58;9.47;;;1.87;;
64353;SDS011;50681;53.334;-6.536;2023-05-10T05:27:24;13.10;;;2.00;;
64353;SDS011;50681;53.334;-6.536;2023-05-10T05:29:55;8.75;;;1.98;;
64353;SDS011;50681;53.334;-6.536;2023-05-10T05:32:21;9.45;;;1.92;;
64353;SDS011;50681;53.334;-6.536;2023-05-10T05:34:47;7.38;;;1.83;;
64353;SDS011;50681;53.334;-6.536;2023-05-10T05:37:17;13.43;;;1.83;;
64353;SDS011;50681;53.334;-6.536;2023-05-10T05:39:43;8.32;;;1.63;;
64353;SDS011;50681;53.334;-6.536;2023-05-10T05:42:10;7.30;;;1.60;;
64353;SDS011;50681;53.334;-6.536;2023-05-10T05:44:36;9.10;;;1.77;;
64353;SDS011;50681;53.334;-6.536;2023-05-10T05:47:01;10.60;;;2.10;;
64353;SDS011;50681;53.334;-6.536;2023-05-10T05:49:27;10.90;;;1.80;;
64353;SDS011;50681;53.334;-6.536;2023-05-10T05:51:53;15.05;;;1.77;;
64353;SDS011;50681;53.334;-6.536;2023-05-10T05:54:19;7.20;;;1.53;;
64353;SDS011;50681;53.334;-6.536;2023-05-10T05:56:44;9.57;;;1.73;;
64353;SDS011;50681;53.334;-6.536;2023-05-10T05:59:10;8.23;;;1.33;;
64353;SDS011;50681;53.334;-6.536;2023-05-10T06:01:36;15.65;;;1.80;;
64353;SDS011;50681;53.334;-6.536;2023-05-10T06:04:02;12.87;;;2.20;;
64353;SDS011;50681;53.334;-6.536;2023-05-10T06:06:27;9.63;;;1.85;;
64353;SDS011;50681;53.334;-6.536;2023-05-10T06:08:53;3.88;;;1.13;;
64353;SDS011;50681;53.334;-6.536;2023-05-10T06:11:18;8.90;;;1.50;;
64353;SDS011;50681;53.334;-6.536;2023-05-10T06:13:46;5.00;;;1.48;;
64353;SDS011;50681;53.334;-6.536;2023-05-10T06:16:12;7.68;;;1.60;;
64353;SDS011;50681;53.334;-6.536;2023-05-10T06:18:38;6.20;;;1.58;;
64353;SDS011;50681;53.334;-6.536;2023-05-10T06:21:03;7.30;;;1.47;;
64353;SDS011;50681;53.334;-6.536;2023-05-10T06:23:29;10.37;;;1.73;;
64353;SDS011;50681;53.334;-6.536;2023-05-10T06:25:54;8.37;;;1.43;;
64353;SDS011;50681;53.334;-6.536;2023-05-10T06:28:20;6.57;;;1.47;;
64353;SDS011;50681;53.334;-6.536;2023-05-10T06:30:46;13.75;;;1.35;;
64353;SDS011;50681;53.334;-6.536;2023-05-10T06:33:11;8.27;;;1.70;;
64353;SDS011;50681;53.334;-6.536;2023-05-10T06:35:36;7.17;;;1.40;;
64353;SDS011;50681;53.334;-6.536;2023-05-10T06:38:03;10.38;;;1.58;;
64353;SDS011;50681;53.334;-6.536;2023-05-10T06:40:29;3.77;;;1.17;;
64353;SDS011;50681;53.334;-6.536;2023-05-10T06:42:54;8.07;;;1.20;;
64353;SDS011;50681;53.334;-6.536;2023-05-10T06:45:20;8.80;;;1.07;;
64353;SDS011;50681;53.334;-6.536;2023-05-10T06:47:45;6.20;;;2.27;;
64353;SDS011;50681;53.334;-6.536;2023-05-10T06:50:13;6.45;;;1.45;;
64353;SDS011;50681;53.334;-6.536;2023-05-10T06:52:38;7.17;;;1.40;;
64353;SDS011;50681;53.334;-6.536;2023-05-10T06:55:04;7.50;;;1.53;;
64353;SDS011;50681;53.334;-6.536;2023-05-10T06:57:30;6.28;;;1.20;;
64353;SDS011;50681;53.334;-6.536;2023-05-10T06:59:56;7.68;;;1.50;;
64353;SDS011;50681;53.334;-6.536;2023-05-10T07:02:21;7.00;;;1.50;;
64353;SDS011;50681;53.334;-6.536;2023-05-10T07:04:47;6.90;;;1.35;;
64353;SDS011;50681;53.334;-6.536;2023-05-10T07:07:13;8.00;;;1.42;;
64353;SDS011;50681;53.334;-6.536;2023-05-10T07:09:39;3.92;;;0.80;;
64353;SDS011;50681;53.334;-6.536;2023-05-10T07:12:05;6.00;;;1.47;;
64353;SDS011;50681;53.334;-6.536;2023-05-10T07:14:30;6.40;;;1.20;;
64353;SDS011;50681;53.334;-6.536;2023-05-10T07:16:55;3.87;;;1.03;;
64353;SDS011;50681;53.334;-6.536;2023-05-10T07:19:21;8.70;;;1.27;;
64353;SDS011;50681;53.334;-6.536;2023-05-10T07:21:46;6.63;;;1.20;;
64353;SDS011;50681;53.334;-6.536;2023-05-10T07:24:12;2.40;;;0.70;;
64353;SDS011;50681;53.334;-6.536;2023-05-10T07:26:37;8.13;;;1.50;;
64353;SDS011;50681;53.334;-6.536;2023-05-10T07:29:04;2.97;;;1.13;;
64353;SDS011;50681;53.334;-6.536;2023-05-10T07:31:30;5.20;;;1.23;;
64353;SDS011;50681;53.334;-6.536;2023-05-10T07:33:55;3.30;;;1.10;;
64353;SDS011;50681;53.334;-6.536;2023-05-10T07:36:21;7.57;;;1.40;;
64353;SDS011;50681;53.334;-6.536;2023-05-10T07:38:46;3.90;;;0.80;;
64353;SDS011;50681;53.334;-6.536;2023-05-10T07:41:12;5.77;;;0.97;;
64353;SDS011;50681;53.334;-6.536;2023-05-10T07:43:38;5.78;;;2.00;;
64353;SDS011;50681;53.334;-6.536;2023-05-10T07:46:03;3.87;;;1.00;;
64353;SDS011;50681;53.334;-6.536;2023-05-10T07:48:29;7.47;;;1.17;;
64353;SDS011;50681;53.334;-6.536;2023-05-10T07:50:54;4.50;;;1.00;;
64353;SDS011;50681;53.334;-6.536;2023-05-10T07:53:20;2.77;;;0.90;;
64353;SDS011;50681;53.334;-6.536;2023-05-10T07:55:57;7.90;;;1.30;;
64353;SDS011;50681;53.334;-6.536;2023-05-10T07:58:23;5.10;;;0.82;;
64353;SDS011;50681;53.334;-6.536;2023-05-10T08:00:55;3.85;;;1.48;;
64353;SDS011;50681;53.334;-6.536;2023-05-10T08:03:21;3.33;;;1.40;;
64353;SDS011;50681;53.334;-6.536;2023-05-10T08:05:53;3.50;;;1.10;;
64353;SDS011;50681;53.334;-6.536;2023-05-10T08:08:19;4.57;;;0.82;;
64353;SDS011;50681;53.334;-6.536;2023-05-10T08:10:46;4.10;;;1.00;;
64353;SDS011;50681;53.334;-6.536;2023-05-10T08:13:14;3.60;;;1.03;;
64353;SDS011;50681;53.334;-6.536;2023-05-10T08:15:40;4.60;;;1.10;;
64353;SDS011;50681;53.334;-6.536;2023-05-10T08:18:05;2.10;;;0.50;;
64353;SDS011;50681;53.334;-6.536;2023-05-10T08:20:31;7.97;;;1.07;;
64353;SDS011;50681;53.334;-6.536;2023-05-10T08:22:56;4.43;;;0.77;;
64353;SDS011;50681;53.334;-6.536;2023-05-10T08:25:21;2.60;;;0.70;;
64353;SDS011;50681;53.334;-6.536;2023-05-10T08:27:47;3.60;;;1.00;;
64353;SDS011;50681;53.334;-6.536;2023-05-10T08:30:12;3.40;;;1.07;;
64353;SDS011;50681;53.334;-6.536;2023-05-10T08:32:38;6.03;;;1.10;;
64353;SDS011;50681;53.334;-6.536;2023-05-10T08:35:03;8.53;;;1.20;;
64353;SDS011;50681;53.334;-6.536;2023-05-10T08:37:30;3.63;;;0.95;;
64353;SDS011;50681;53.334;-6.536;2023-05-10T08:39:55;3.67;;;0.70;;
64353;SDS011;50681;53.334;-6.536;2023-05-10T08:42:21;3.40;;;1.03;;
64353;SDS011;50681;53.334;-6.536;2023-05-10T08:44:50;4.30;;;0.60;;
64353;SDS011;50681;53.334;-6.536;2023-05-10T08:47:18;6.97;;;0.80;;
64353;SDS011;50681;53.334;-6.536;2023-05-10T08:49:44;4.60;;;1.00;;
64353;SDS011;50681;53.334;-6.536;2023-05-10T08:52:13;1.23;;;0.52;;
64353;SDS011;50681;53.334;-6.536;2023-05-10T08:54:41;4.35;;;1.10;;
64353;SDS011;50681;53.334;-6.536;2023-05-10T08:57:07;2.17;;;0.60;;
64353;SDS011;50681;53.334;-6.536;2023-05-10T08:59:33;2.47;;;0.77;;
64353;SDS011;50681;53.334;-6.536;2023-05-10T09:01:59;1.55;;;0.52;;
64353;SDS011;50681;53.334;-6.536;2023-05-10T09:07:00;4.88;;;1.13;;
64353;SDS011;50681;53.334;-6.536;2023-05-10T09:09:26;3.75;;;1.08;;
64353;SDS011;50681;53.334;-6.536;2023-05-10T09:11:54;8.73;;;1.35;;
64353;SDS011;50681;53.334;-6.536;2023-05-10T09:14:19;8.10;;;1.05;;
64353;SDS011;50681;53.334;-6.536;2023-05-10T09:16:45;6.00;;;1.05;;
64353;SDS011;50681;53.334;-6.536;2023-05-10T09:19:11;4.78;;;1.08;;
64353;SDS011;50681;53.334;-6.536;2023-05-10T09:21:37;5.87;;;1.07;;
64353;SDS011;50681;53.334;-6.536;2023-05-10T09:24:06;4.78;;;0.77;;
64353;SDS011;50681;53.334;-6.536;2023-05-10T09:26:33;1.60;;;0.52;;
64353;SDS011;50681;53.334;-6.536;2023-05-10T09:29:00;3.08;;;0.40;;
64353;SDS011;50681;53.334;-6.536;2023-05-10T09:31:46;2.28;;;0.70;;
64353;SDS011;50681;53.334;-6.536;2023-05-10T09:34:31;1.67;;;0.68;;
64353;SDS011;50681;53.334;-6.536;2023-05-10T09:37:03;2.47;;;0.90;;
64353;SDS011;50681;53.334;-6.536;2023-05-10T09:39:36;3.55;;;0.73;;
64353;SDS011;50681;53.334;-6.536;2023-05-10T09:42:03;3.45;;;0.68;;
64353;SDS011;50681;53.334;-6.536;2023-05-10T09:44:30;3.30;;;0.73;;
64353;SDS011;50681;53.334;-6.536;2023-05-10T09:46:56;2.80;;;0.63;;
64353;SDS011;50681;53.334;-6.536;2023-05-10T09:49:22;2.50;;;0.80;;
64353;SDS011;50681;53.334;-6.536;2023-05-10T09:51:56;1.63;;;0.70;;
64353;SDS011;50681;53.334;-6.536;2023-05-10T09:54:25;2.78;;;0.75;;
64353;SDS011;50681;53.334;-6.536;2023-05-10T09:56:51;0.98;;;0.35;;
64353;SDS011;50681;53.334;-6.536;2023-05-10T09:59:16;2.73;;;0.83;;
64353;SDS011;50681;53.334;-6.536;2023-05-10T10:01:48;5.07;;;1.05;;
64353;SDS011;50681;53.334;-6.536;2023-05-10T10:04:15;2.78;;;0.98;;
64353;SDS011;50681;53.334;-6.536;2023-05-10T10:06:45;1.77;;;0.68;;
64353;SDS011;50681;53.334;-6.536;2023-05-10T10:09:13;1.55;;;0.60;;
64353;SDS011;50681;53.334;-6.536;2023-05-10T10:11:39;3.53;;;1.20;;
64353;SDS011;50681;53.334;-6.536;2023-05-10T10:14:06;3.88;;;1.88;;
64353;SDS011;50681;53.334;-6.536;2023-05-10T10:16:32;7.67;;;1.03;;
64353;SDS011;50681;53.334;-6.536;2023-05-10T10:18:57;4.38;;;1.05;;
64353;SDS011;50681;53.334;-6.536;2023-05-10T10:21:23;2.35;;;0.80;;
64353;SDS011;50681;53.334;-6.536;2023-05-10T10:23:49;3.72;;;1.13;;
64353;SDS011;50681;53.334;-6.536;2023-05-10T10:26:15;0.68;;;0.40;;
64353;SDS011;50681;53.334;-6.536;2023-05-10T10:31:34;1.35;;;0.50;;
64353;SDS011;50681;53.334;-6.536;2023-05-10T10:34:06;2.07;;;0.90;;
64353;SDS011;50681;53.334;-6.536;2023-05-10T10:36:40;2.42;;;0.60;;
64353;SDS011;50681;53.334;-6.536;2023-05-10T10:39:10;4.32;;;1.05;;
64353;SDS011;50681;53.334;-6.536;2023-05-10T10:41:40;3.63;;;1.00;;
64353;SDS011;50681;53.334;-6.536;2023-05-10T10:47:06;1.45;;;0.50;;
64353;SDS011;50681;53.334;-6.536;2023-05-10T10:49:51;1.08;;;0.40;;
64353;SDS011;50681;53.334;-6.536;2023-05-10T10:52:27;2.35;;;0.30;;
64353;SDS011;50681;53.334;-6.536;2023-05-10T10:55:05;4.50;;;0.70;;
64353;SDS011;50681;53.334;-6.536;2023-05-10T11:00:19;1.58;;;0.60;;
64353;SDS011;50681;53.334;-6.536;2023-05-10T11:02:46;6.10;;;1.10;;
64353;SDS011;50681;53.334;-6.536;2023-05-10T11:07:58;4.20;;;0.75;;
64353;SDS011;50681;53.334;-6.536;2023-05-10T11:10:25;2.80;;;0.70;;
64353;SDS011;50681;53.334;-6.536;2023-05-10T11:13:07;5.32;;;0.90;;
64353;SDS011;50681;53.334;-6.536;2023-05-10T11:15:34;5.72;;;1.33;;
64353;SDS011;50681;53.334;-6.536;2023-05-10T11:20:51;4.28;;;0.82;;
64353;SDS011;50681;53.334;-6.536;2023-05-10T11:23:17;2.80;;;0.90;;
64353;SDS011;50681;53.334;-6.536;2023-05-10T11:25:46;3.47;;;0.80;;
64353;SDS011;50681;53.334;-6.536;2023-05-10T11:28:13;2.45;;;0.65;;
64353;SDS011;50681;53.334;-6.536;2023-05-10T11:30:40;4.00;;;0.80;;
64353;SDS011;50681;53.334;-6.536;2023-05-10T11:33:15;3.95;;;0.65;;
64353;SDS011;50681;53.334;-6.536;2023-05-10T11:35:42;3.38;;;1.05;;
64353;SDS011;50681;53.334;-6.536;2023-05-10T11:38:08;2.35;;;0.73;;
64353;SDS011;50681;53.334;-6.536;2023-05-10T11:40:39;4.13;;;0.98;;
64353;SDS011;50681;53.334;-6.536;2023-05-10T11:43:05;2.40;;;0.70;;
64353;SDS011;50681;53.334;-6.536;2023-05-10T11:45:35;5.25;;;0.90;;
64353;SDS011;50681;53.334;-6.536;2023-05-10T11:48:04;3.60;;;0.65;;
64353;SDS011;50681;53.334;-6.536;2023-05-10T11:50:29;5.25;;;0.88;;
64353;SDS011;50681;53.334;-6.536;2023-05-10T11:52:55;5.77;;;1.03;;
64353;SDS011;50681;53.334;-6.536;2023-05-10T11:55:22;5.35;;;1.00;;
64353;SDS011;50681;53.334;-6.536;2023-05-10T11:57:52;4.40;;;1.00;;
64353;SDS011;50681;53.334;-6.536;2023-05-10T12:00:19;4.45;;;1.50;;
64353;SDS011;50681;53.334;-6.536;2023-05-10T12:02:44;2.28;;;0.80;;
64353;SDS011;50681;53.334;-6.536;2023-05-10T12:05:10;3.25;;;1.02;;
64353;SDS011;50681;53.334;-6.536;2023-05-10T12:07:36;2.13;;;0.82;;
64353;SDS011;50681;53.334;-6.536;2023-05-10T12:10:12;3.25;;;1.08;;
64353;SDS011;50681;53.334;-6.536;2023-05-10T12:12:51;2.33;;;1.00;;
64353;SDS011;50681;53.334;-6.536;2023-05-10T12:15:24;3.40;;;1.15;;
64353;SDS011;50681;53.334;-6.536;2023-05-10T12:17:50;6.85;;;1.05;;
64353;SDS011;50681;53.334;-6.536;2023-05-10T12:20:16;5.97;;;1.65;;
64353;SDS011;50681;53.334;-6.536;2023-05-10T12:22:55;3.00;;;1.00;;
64353;SDS011;50681;53.334;-6.536;2023-05-10T12:26:01;4.13;;;0.95;;
64353;SDS011;50681;53.334;-6.536;2023-05-10T12:28:32;2.55;;;0.70;;
64353;SDS011;50681;53.334;-6.536;2023-05-10T12:31:02;6.25;;;1.67;;
64353;SDS011;50681;53.334;-6.536;2023-05-10T12:33:37;3.15;;;0.90;;
64353;SDS011;50681;53.334;-6.536;2023-05-10T12:36:24;2.92;;;1.10;;
64353;SDS011;50681;53.334;-6.536;2023-05-10T12:38:50;1.15;;;0.57;;
64353;SDS011;50681;53.334;-6.536;2023-05-10T12:41:20;2.65;;;0.73;;
64353;SDS011;50681;53.334;-6.536;2023-05-10T12:43:59;1.48;;;0.70;;
64353;SDS011;50681;53.334;-6.536;2023-05-10T12:46:33;2.78;;;0.80;;
64353;SDS011;50681;53.334;-6.536;2023-05-10T12:48:59;1.40;;;0.70;;
64353;SDS011;50681;53.334;-6.536;2023-05-10T12:51:28;1.67;;;0.65;;
64353;SDS011;50681;53.334;-6.536;2023-05-10T12:54:06;2.80;;;1.10;;
64353;SDS011;50681;53.334;-6.536;2023-05-10T12:56:41;2.92;;;0.88;;
64353;SDS011;50681;53.334;-6.536;2023-05-10T13:01:33;4.40;;;0.80;;
64353;SDS011;50681;53.334;-6.536;2023-05-10T13:03:58;3.03;;;0.80;;
64353;SDS011;50681;53.334;-6.536;2023-05-10T13:06:25;7.28;;;0.77;;
64353;SDS011;50681;53.334;-6.536;2023-05-10T13:08:50;1.67;;;0.60;;
64353;SDS011;50681;53.334;-6.536;2023-05-10T13:11:16;1.63;;;0.68;;
64353;SDS011;50681;53.334;-6.536;2023-05-10T13:13:44;1.77;;;0.68;;
64353;SDS011;50681;53.334;-6.536;2023-05-10T13:16:11;2.92;;;0.65;;
64353;SDS011;50681;53.334;-6.536;2023-05-10T13:18:38;1.70;;;0.60;;
64353;SDS011;50681;53.334;-6.536;2023-05-10T13:21:04;3.50;;;1.10;;
64353;SDS011;50681;53.334;-6.536;2023-05-10T13:23:38;4.85;;;0.98;;
64353;SDS011;50681;53.334;-6.536;2023-05-10T13:26:03;2.97;;;0.97;;
64353;SDS011;50681;53.334;-6.536;2023-05-10T13:28:29;4.23;;;1.10;;
64353;SDS011;50681;53.334;-6.536;2023-05-10T13:30:55;3.13;;;0.60;;
64353;SDS011;50681;53.334;-6.536;2023-05-10T13:33:20;4.83;;;0.87;;
64353;SDS011;50681;53.334;-6.536;2023-05-10T13:35:45;4.10;;;1.03;;
64353;SDS011;50681;53.334;-6.536;2023-05-10T13:38:11;5.60;;;1.03;;
64353;SDS011;50681;53.334;-6.536;2023-05-10T13:40:37;7.28;;;1.00;;
64353;SDS011;50681;53.334;-6.536;2023-05-10T13:43:03;2.60;;;0.83;;
64353;SDS011;50681;53.334;-6.536;2023-05-10T13:45:28;6.40;;;0.63;;
64353;SDS011;50681;53.334;-6.536;2023-05-10T13:47:56;2.97;;;1.00;;
64353;SDS011;50681;53.334;-6.536;2023-05-10T13:50:21;1.77;;;0.50;;
64353;SDS011;50681;53.334;-6.536;2023-05-10T13:52:46;1.43;;;0.53;;
64353;SDS011;50681;53.334;-6.536;2023-05-10T13:55:12;3.83;;;0.63;;
64353;SDS011;50681;53.334;-6.536;2023-05-10T13:57:38;2.95;;;0.60;;
64353;SDS011;50681;53.334;-6.536;2023-05-10T14:00:03;3.30;;;0.30;;
64353;SDS011;50681;53.334;-6.536;2023-05-10T14:02:30;3.10;;;0.60;;
64353;SDS011;50681;53.334;-6.536;2023-05-10T14:04:56;5.20;;;0.98;;
64353;SDS011;50681;53.334;-6.536;2023-05-10T14:07:21;1.13;;;0.60;;
64353;SDS011;50681;53.334;-6.536;2023-05-10T14:09:47;4.13;;;0.97;;
64353;SDS011;50681;53.334;-6.536;2023-05-10T14:12:12;3.57;;;0.97;;
64353;SDS011;50681;53.334;-6.536;2023-05-10T14:14:39;3.53;;;0.90;;
64353;SDS011;50681;53.334;-6.536;2023-05-10T14:17:04;2.45;;;0.85;;
64353;SDS011;50681;53.334;-6.536;2023-05-10T14:19:30;3.60;;;0.80;;
64353;SDS011;50681;53.334;-6.536;2023-05-10T14:21:57;1.73;;;0.55;;
64353;SDS011;50681;53.334;-6.536;2023-05-10T14:24:23;5.57;;;1.25;;
64353;SDS011;50681;53.334;-6.536;2023-05-10T14:26:48;4.18;;;1.00;;
64353;SDS011;50681;53.334;-6.536;2023-05-10T14:29:14;2.17;;;0.67;;
64353;SDS011;50681;53.334;-6.536;2023-05-10T14:31:39;2.25;;;0.98;;
64353;SDS011;50681;53.334;-6.536;2023-05-10T14:34:05;5.35;;;0.80;;
64353;SDS011;50681;53.334;-6.536;2023-05-10T14:39:07;3.85;;;1.08;;
64353;SDS011;50681;53.334;-6.536;2023-05-10T14:41:35;3.50;;;0.80;;
64353;SDS011;50681;53.334;-6.536;2023-05-10T14:44:00;4.40;;;0.82;;
64353;SDS011;50681;53.334;-6.536;2023-05-10T14:46:28;2.35;;;0.80;;
64353;SDS011;50681;53.334;-6.536;2023-05-10T14:48:54;2.72;;;0.70;;
64353;SDS011;50681;53.334;-6.536;2023-05-10T14:51:20;2.72;;;0.80;;
64353;SDS011;50681;53.334;-6.536;2023-05-10T14:53:46;2.95;;;0.98;;
64353;SDS011;50681;53.334;-6.536;2023-05-10T14:56:15;4.63;;;1.00;;
64353;SDS011;50681;53.334;-6.536;2023-05-10T14:58:40;3.00;;;0.80;;
64353;SDS011;50681;53.334;-6.536;2023-05-10T15:01:06;2.57;;;1.00;;
64353;SDS011;50681;53.334;-6.536;2023-05-10T15:03:31;4.53;;;0.90;;
64353;SDS011;50681;53.334;-6.536;2023-05-10T15:06:01;3.07;;;1.07;;
64353;SDS011;50681;53.334;-6.536;2023-05-10T15:08:26;1.77;;;0.73;;
64353;SDS011;50681;53.334;-6.536;2023-05-10T15:10:52;7.33;;;1.57;;
64353;SDS011;50681;53.334;-6.536;2023-05-10T15:13:17;3.43;;;0.97;;
64353;SDS011;50681;53.334;-6.536;2023-05-10T15:15:42;3.47;;;1.00;;
64353;SDS011;50681;53.334;-6.536;2023-05-10T15:18:08;3.33;;;0.80;;
64353;SDS011;50681;53.334;-6.536;2023-05-10T15:20:34;4.43;;;1.23;;